createdAt,value
2023-04-17T00:03:52.262Z,7.16
2023-04-17T00:08:53.228Z,7.18
2023-04-17T00:13:54.040Z,7.20
2023-04-17T00:18:55.202Z,7.24
2023-04-17T00:23:56.337Z,7.25
2023-04-17T00:28:57.392Z,7.23
2023-04-17T00:34:00.809Z,7.20
2023-04-17T00:39:01.674Z,7.14
2023-04-17T00:44:02.629Z,7.20
2023-04-17T00:49:04.052Z,7.19
2023-04-17T00:54:05.487Z,7.25
2023-04-17T00:59:11.105Z,7.23
2023-04-17T01:04:12.328Z,7.17
2023-04-17T01:09:14.292Z,7.23
2023-04-17T01:14:15.237Z,7.27
2023-04-17T01:19:16.406Z,7.27
2023-04-17T01:24:17.224Z,7.18
2023-04-17T01:29:18.172Z,7.13
2023-04-17T01:34:19.372Z,7.08
2023-04-17T01:39:20.920Z,7.08
2023-04-17T01:44:21.700Z,7.08
2023-04-17T01:49:22.591Z,7.08
2023-04-17T01:54:24.170Z,7.13
2023-04-17T01:59:25.279Z,7.12
2023-04-17T02:04:26.291Z,7.04
2023-04-17T02:09:27.573Z,7.10
2023-04-17T02:14:30.472Z,7.08
2023-04-17T02:19:31.489Z,7.33
2023-04-17T02:24:32.274Z,7.26
2023-04-17T02:29:34.609Z,7.19
2023-04-17T02:34:35.785Z,7.11
2023-04-17T02:39:36.889Z,7.17
2023-04-17T02:44:39.145Z,7.13
2023-04-17T02:49:41.073Z,7.13
2023-04-17T02:54:41.886Z,7.25
2023-04-17T02:59:44.177Z,7.18
2023-04-17T03:04:45.307Z,7.16
2023-04-17T03:09:46.666Z,7.25
2023-04-17T03:14:47.826Z,7.29
2023-04-17T03:19:48.856Z,7.24
2023-04-17T03:24:49.681Z,7.16
2023-04-17T03:29:51.472Z,7.13
2023-04-17T03:34:52.564Z,7.15
2023-04-17T03:39:54.841Z,7.24
2023-04-17T03:44:55.794Z,7.15
2023-04-17T03:49:57.418Z,7.15
2023-04-17T03:54:58.921Z,7.13
2023-04-17T04:00:00.324Z,7.05
2023-04-17T04:05:07.095Z,6.98
2023-04-17T04:10:08.917Z,7.20
2023-04-17T04:15:10.146Z,7.22
2023-04-17T04:20:12.599Z,7.11
2023-04-17T04:25:15.220Z,7.08
2023-04-17T04:31:04.597Z,7.00
2023-04-17T04:36:13.226Z,6.98
2023-04-17T04:41:14.504Z,7.01
2023-04-17T04:46:15.869Z,7.14
2023-04-17T04:51:19.170Z,7.07
2023-04-17T04:56:21.368Z,7.24
2023-04-17T05:01:23.977Z,7.11
2023-04-17T05:06:25.371Z,7.07
2023-04-17T05:11:29.917Z,7.27
2023-04-17T05:16:32.098Z,7.16
2023-04-17T05:21:33.448Z,7.24
2023-04-17T05:26:36.401Z,7.15
2023-04-17T05:31:39.656Z,7.17
2023-04-17T05:36:46.429Z,7.27
2023-04-17T05:41:48.133Z,7.36
2023-04-17T05:46:48.960Z,7.36
2023-04-17T05:51:49.956Z,7.40
2023-04-17T05:56:52.436Z,7.52
2023-04-17T06:01:53.611Z,7.46
2023-04-17T06:06:55.932Z,7.54
2023-04-17T06:11:57.381Z,7.55
2023-04-17T06:16:58.636Z,7.53
2023-04-17T06:21:59.692Z,7.55
2023-04-17T06:27:00.812Z,7.72
2023-04-17T06:32:01.797Z,7.84
2023-04-17T06:37:02.858Z,8.01
2023-04-17T06:42:05.569Z,8.10
2023-04-17T06:47:11.528Z,8.11
2023-04-17T06:52:12.583Z,8.07
2023-04-17T06:57:13.360Z,8.05
2023-04-17T07:02:14.416Z,8.01
2023-04-17T07:07:15.980Z,7.83
2023-04-17T07:12:16.821Z,7.64
2023-04-17T07:17:18.205Z,7.68
2023-04-17T07:22:19.100Z,7.69
2023-04-17T07:27:19.972Z,7.60
2023-04-17T07:32:23.417Z,7.65
2023-04-17T07:37:24.939Z,7.81
2023-04-17T07:42:25.706Z,7.81
2023-04-17T07:47:26.490Z,8.07
2023-04-17T07:52:27.425Z,8.01
2023-04-17T07:57:28.226Z,8.00
2023-04-17T08:02:29.626Z,7.82
2023-04-17T08:07:30.733Z,7.88
2023-04-17T08:12:32.269Z,8.08
2023-04-17T08:17:33.487Z,8.21
2023-04-17T08:22:42.003Z,8.18
2023-04-17T08:27:42.901Z,8.27
2023-04-17T08:32:46.398Z,8.47
2023-04-17T08:37:47.354Z,8.65
2023-04-17T08:42:49.674Z,8.73
2023-04-17T08:47:50.580Z,9.05
2023-04-17T08:52:51.913Z,9.18
2023-04-17T08:58:04.000Z,9.40
2023-04-17T09:03:07.111Z,9.51
2023-04-17T09:08:23.577Z,9.31
2023-04-17T09:13:26.521Z,9.45
2023-04-17T09:18:31.507Z,9.47
2023-04-17T09:23:50.273Z,9.82
2023-04-17T09:29:08.237Z,9.76
2023-04-17T09:34:13.239Z,9.98
2023-04-17T09:39:19.700Z,9.77
2023-04-17T09:44:26.256Z,9.79
2023-04-17T09:50:01.888Z,9.78
2023-04-17T09:55:06.183Z,9.68
2023-04-17T10:00:14.028Z,9.48
2023-04-17T10:05:15.144Z,9.32
2023-04-17T10:10:32.585Z,9.30
2023-04-17T10:15:34.554Z,9.17
2023-04-17T10:20:37.350Z,9.05
2023-04-17T10:25:38.387Z,8.76
2023-04-17T10:30:53.332Z,8.61
2023-04-17T10:35:54.387Z,8.80
2023-04-17T10:40:55.199Z,9.34
2023-04-17T10:46:09.360Z,9.95
2023-04-17T10:53:03.581Z,10.58
2023-04-17T10:58:14.574Z,10.37
2023-04-17T11:03:16.437Z,10.61
2023-04-17T11:08:17.348Z,11.09
2023-04-17T11:13:18.562Z,11.58
2023-04-17T11:18:20.825Z,11.70
2023-04-17T11:23:21.666Z,12.34
2023-04-17T11:28:22.436Z,12.13
2023-04-17T11:33:23.205Z,11.77
2023-04-17T11:38:24.144Z,11.52
2023-04-17T11:43:27.108Z,11.25
2023-04-17T11:48:29.504Z,10.97
2023-04-17T11:53:31.381Z,10.50
2023-04-17T11:58:32.281Z,10.25
2023-04-17T12:03:34.491Z,10.22
2023-04-17T12:08:47.251Z,10.26
2023-04-17T12:13:48.056Z,10.26
2023-04-17T12:18:48.960Z,10.21
2023-04-17T12:23:50.028Z,10.14
2023-04-17T12:28:51.085Z,10.55
2023-04-17T12:33:51.850Z,10.80
2023-04-17T12:38:52.743Z,10.98
2023-04-17T12:43:53.844Z,11.03
2023-04-17T12:48:57.706Z,10.94
2023-04-17T12:53:58.536Z,10.72
2023-04-17T12:59:02.224Z,10.50
2023-04-17T13:04:04.311Z,10.55
2023-04-17T13:09:05.410Z,10.38
2023-04-17T13:14:06.628Z,10.22
2023-04-17T13:19:07.426Z,10.22
2023-04-17T13:24:13.716Z,10.18
2023-04-17T13:29:17.019Z,10.15
2023-04-17T13:34:19.419Z,10.16
2023-04-17T13:39:20.485Z,10.22
2023-04-17T13:44:21.313Z,10.38
2023-04-17T13:49:22.092Z,10.57
2023-04-17T13:54:22.885Z,10.59
2023-04-17T13:59:24.193Z,10.58
2023-04-17T14:04:25.170Z,10.38
2023-04-17T14:09:26.598Z,10.50
2023-04-17T14:14:27.373Z,10.55
2023-04-17T14:19:28.649Z,10.73
2023-04-17T14:24:29.430Z,10.91
2023-04-17T14:29:30.253Z,11.16
2023-04-17T14:34:31.054Z,11.08
2023-04-17T14:39:32.339Z,10.82
2023-04-17T14:44:33.195Z,10.76
2023-04-17T14:49:34.211Z,10.69
2023-04-17T14:54:35.110Z,10.69
2023-04-17T14:59:36.071Z,10.56
2023-04-17T15:04:36.891Z,10.48
2023-04-17T15:09:37.797Z,10.30
2023-04-17T15:14:38.607Z,10.32
2023-04-17T15:19:39.718Z,10.53
2023-04-17T15:24:40.469Z,10.49
2023-04-17T15:29:41.358Z,10.33
2023-04-17T15:34:42.343Z,10.29
2023-04-17T15:39:43.258Z,10.30
2023-04-17T15:44:44.079Z,10.17
2023-04-17T15:49:47.220Z,10.09
2023-04-17T15:54:48.159Z,10.23
2023-04-17T15:59:48.953Z,10.18
2023-04-17T16:04:49.842Z,10.16
2023-04-17T16:09:50.776Z,10.23
2023-04-17T16:14:51.642Z,10.27
2023-04-17T16:19:52.587Z,10.25
2023-04-17T16:24:53.320Z,10.31
2023-04-17T16:29:54.795Z,10.44
2023-04-17T16:34:55.530Z,10.34
2023-04-17T16:39:56.423Z,10.09
2023-04-17T16:44:57.833Z,10.06
2023-04-17T16:49:58.660Z,10.07
2023-04-17T16:54:59.480Z,10.06
2023-04-17T17:00:00.305Z,10.01
2023-04-17T17:05:01.139Z,9.86
2023-04-17T17:10:02.868Z,9.85
2023-04-17T17:15:05.338Z,9.84
2023-04-17T17:20:08.086Z,9.73
2023-04-17T17:25:08.948Z,9.68
2023-04-17T17:30:12.365Z,9.86
2023-04-17T17:35:13.142Z,9.87
2023-04-17T17:40:14.021Z,9.89
2023-04-17T17:45:15.151Z,9.68
2023-04-17T17:50:15.988Z,9.84
2023-04-17T17:55:17.210Z,9.83
2023-04-17T18:00:18.397Z,9.77
2023-04-17T18:05:19.199Z,9.76
2023-04-17T18:10:20.209Z,9.66
2023-04-17T18:15:21.290Z,9.61
2023-04-17T18:20:22.513Z,9.61
2023-04-17T18:25:23.308Z,9.55
2023-04-17T18:30:24.235Z,9.57
2023-04-17T18:35:25.061Z,9.61
2023-04-17T18:40:25.915Z,9.54
2023-04-17T18:45:27.193Z,9.50
2023-04-17T18:50:27.999Z,9.52
2023-04-17T18:55:28.846Z,9.43
2023-04-17T19:00:29.665Z,9.45
2023-04-17T19:05:30.485Z,9.43
2023-04-17T19:10:31.428Z,9.52
2023-04-17T19:15:32.225Z,9.54
2023-04-17T19:20:33.003Z,9.52
2023-04-17T19:25:34.291Z,9.39
2023-04-17T19:30:35.138Z,9.45
2023-04-17T19:35:36.048Z,9.46
2023-04-17T19:40:36.965Z,9.45
2023-04-17T19:45:38.165Z,9.38
2023-04-17T19:50:38.970Z,9.40
2023-04-17T19:55:40.796Z,9.40
2023-04-17T20:00:41.578Z,9.32
2023-04-17T20:05:42.365Z,9.35
2023-04-17T20:10:43.274Z,9.40
2023-04-17T20:15:44.091Z,9.37
2023-04-17T20:20:44.880Z,9.31
2023-04-17T20:25:46.348Z,9.41
2023-04-17T20:30:47.129Z,9.41
2023-04-17T20:35:47.904Z,9.32
2023-04-17T20:40:48.767Z,9.32
2023-04-17T20:45:49.685Z,9.14
2023-04-17T20:50:51.098Z,9.03
2023-04-17T20:55:51.846Z,9.10
2023-04-17T21:01:00.745Z,8.80
2023-04-17T21:06:02.812Z,8.70
2023-04-17T21:11:04.073Z,8.57
2023-04-17T21:16:08.953Z,8.55
2023-04-17T21:21:09.771Z,8.47
2023-04-17T21:26:10.652Z,8.35
2023-04-17T21:31:14.417Z,8.31
2023-04-17T21:36:15.217Z,8.30
2023-04-17T21:41:16.147Z,8.26
2023-04-17T21:46:17.060Z,8.19
2023-04-17T21:51:17.957Z,8.21
2023-04-17T21:56:18.720Z,8.08
2023-04-17T22:01:19.689Z,7.87
2023-04-17T22:06:20.737Z,7.81
2023-04-17T22:11:22.286Z,7.86
2023-04-17T22:16:23.065Z,7.89
2023-04-17T22:21:23.909Z,7.62
2023-04-17T22:26:26.406Z,7.62
2023-04-17T22:31:27.394Z,7.44
2023-04-17T22:36:28.249Z,7.38
2023-04-17T22:41:29.112Z,7.42
2023-04-17T22:46:30.234Z,7.33
2023-04-17T22:51:31.975Z,7.31
2023-04-17T22:56:33.202Z,7.20
2023-04-17T23:01:33.991Z,7.29
2023-04-17T23:06:34.809Z,7.28
2023-04-17T23:11:35.648Z,7.29
2023-04-17T23:16:36.513Z,7.24
2023-04-17T23:21:37.355Z,7.49
2023-04-17T23:26:38.465Z,7.43
2023-04-17T23:31:39.259Z,7.40
2023-04-17T23:36:40.081Z,7.28
2023-04-17T23:41:41.888Z,7.30
2023-04-17T23:46:42.674Z,7.20
2023-04-17T23:51:43.500Z,7.18
2023-04-17T23:56:44.459Z,7.16
